createdAt,value
2017-10-21T00:00:04.615Z,12.58
2017-10-21T00:01:04.549Z,12.63
2017-10-21T00:02:04.513Z,12.58
2017-10-21T00:03:04.437Z,12.67
2017-10-21T00:04:04.377Z,12.67
2017-10-21T00:05:04.323Z,12.62
2017-10-21T00:06:04.279Z,12.69
2017-10-21T00:07:04.210Z,12.70
2017-10-21T00:08:04.170Z,12.71
2017-10-21T00:09:04.099Z,12.71
2017-10-21T00:10:04.036Z,12.76
2017-10-21T00:11:03.984Z,12.69
2017-10-21T00:12:03.945Z,12.77
2017-10-21T00:13:03.867Z,12.77
2017-10-21T00:14:03.813Z,12.76
2017-10-21T00:15:03.756Z,12.85
2017-10-21T00:16:03.703Z,12.79
2017-10-21T00:17:03.646Z,12.88
2017-10-21T00:18:03.590Z,12.84
2017-10-21T00:19:03.567Z,12.87
2017-10-21T00:20:03.478Z,12.81
2017-10-21T00:21:03.423Z,12.81
2017-10-21T00:22:03.370Z,12.87
2017-10-21T00:23:03.338Z,12.87
2017-10-21T00:24:03.298Z,12.77
2017-10-21T00:25:03.203Z,12.80
2017-10-21T00:26:03.146Z,12.88
2017-10-21T00:27:03.090Z,12.87
2017-10-21T00:28:03.031Z,12.80
2017-10-21T00:29:02.990Z,12.87
2017-10-21T00:30:02.925Z,12.91
2017-10-21T00:31:02.870Z,12.92
2017-10-21T00:32:02.814Z,12.88
2017-10-21T00:33:02.752Z,12.91
2017-10-21T00:34:02.742Z,12.89
2017-10-21T00:35:02.658Z,12.88
2017-10-21T00:36:02.597Z,12.91
2017-10-21T00:37:02.541Z,12.89
2017-10-21T00:38:02.497Z,12.92
2017-10-21T00:39:02.433Z,12.94
2017-10-21T00:40:02.377Z,12.87
2017-10-21T00:41:02.309Z,12.92
2017-10-21T00:42:02.247Z,12.94
2017-10-21T00:43:02.190Z,12.94
2017-10-21T00:44:02.134Z,12.89
2017-10-21T00:45:02.078Z,12.87
2017-10-21T00:46:02.059Z,12.99
2017-10-21T00:47:01.969Z,12.98
2017-10-21T00:48:01.912Z,12.88
2017-10-21T00:49:01.852Z,12.92
2017-10-21T00:50:01.800Z,12.95
2017-10-21T00:51:01.778Z,12.94
2017-10-21T00:52:01.685Z,12.98
2017-10-21T00:53:01.630Z,12.88
2017-10-21T00:54:01.613Z,12.96
2017-10-21T00:55:01.524Z,12.89
2017-10-21T00:56:01.519Z,12.96
2017-10-21T00:57:01.400Z,12.92
2017-10-21T00:58:01.354Z,13.03
2017-10-21T00:59:01.288Z,13.03
2017-10-21T01:00:01.234Z,12.99
2017-10-21T01:01:01.191Z,12.99
2017-10-21T01:02:01.122Z,12.99
2017-10-21T01:03:01.071Z,12.94
2017-10-21T01:04:01.010Z,13.01
2017-10-21T01:05:00.954Z,12.99
2017-10-21T01:06:00.930Z,13.01
2017-10-21T01:07:00.853Z,12.94
2017-10-21T01:08:00.809Z,13.01
2017-10-21T01:09:00.735Z,12.95
2017-10-21T01:10:00.678Z,13.07
2017-10-21T01:11:00.623Z,13.06
2017-10-21T01:12:00.566Z,13.03
2017-10-21T01:13:00.508Z,12.99
2017-10-21T01:14:00.456Z,12.94
2017-10-21T01:15:00.404Z,13.07
2017-10-21T01:16:00.368Z,13.03
2017-10-21T01:17:00.295Z,12.96
2017-10-21T01:18:00.230Z,13.06
2017-10-21T01:19:00.182Z,13.06
2017-10-21T01:20:00.132Z,13.06
2017-10-21T01:21:00.059Z,13.04
2017-10-21T01:22:00.037Z,12.99
2017-10-21T01:22:59.952Z,13.03
2017-10-21T01:23:59.940Z,12.98
2017-10-21T01:24:59.856Z,13.01
2017-10-21T01:25:59.783Z,13.09
2017-10-21T01:26:59.743Z,13.07
2017-10-21T01:27:59.671Z,13.07
2017-10-21T01:28:59.641Z,13.07
2017-10-21T01:29:59.557Z,13.04
2017-10-21T01:30:59.500Z,13.16
2017-10-21T01:31:59.445Z,13.04
2017-10-21T01:32:59.387Z,13.07
2017-10-21T01:33:59.334Z,13.12
2017-10-21T01:34:59.276Z,13.06
2017-10-21T01:35:59.218Z,13.06
2017-10-21T01:36:59.163Z,13.03
2017-10-21T01:37:59.104Z,13.06
2017-10-21T01:38:59.073Z,13.16
2017-10-21T01:39:58.991Z,13.12
2017-10-21T01:40:58.935Z,13.16
2017-10-21T01:41:58.878Z,13.12
2017-10-21T01:42:58.870Z,13.10
2017-10-21T01:43:58.768Z,13.09
2017-10-21T01:44:58.708Z,13.12
2017-10-21T01:45:58.659Z,13.07
2017-10-21T01:46:58.601Z,13.06
2017-10-21T01:47:58.546Z,13.03
2017-10-21T01:48:58.511Z,13.01
2017-10-21T01:49:58.432Z,13.03
2017-10-21T01:50:58.386Z,13.10
2017-10-21T01:51:58.321Z,13.03
2017-10-21T01:52:58.264Z,13.06
2017-10-21T01:53:58.211Z,12.99
2017-10-21T01:54:58.157Z,13.04
2017-10-21T01:55:58.094Z,13.06
2017-10-21T01:56:58.042Z,12.98
2017-10-21T01:57:57.997Z,12.99
2017-10-21T01:58:57.956Z,13.03
2017-10-21T01:59:57.878Z,13.03
2017-10-21T02:00:57.869Z,12.92
2017-10-21T02:01:57.774Z,12.89
2017-10-21T02:02:57.723Z,12.96
2017-10-21T02:03:57.658Z,13.03
2017-10-21T02:04:57.615Z,12.94
2017-10-21T02:05:57.545Z,12.96
2017-10-21T02:06:57.494Z,12.96
2017-10-21T02:07:57.439Z,12.91
2017-10-21T02:08:57.384Z,12.92
2017-10-21T02:09:57.333Z,12.88
2017-10-21T02:10:57.252Z,12.81
2017-10-21T02:11:57.196Z,12.87
2017-10-21T02:12:57.138Z,12.87
2017-10-21T02:13:57.098Z,12.87
2017-10-21T02:14:57.034Z,12.87
2017-10-21T02:15:56.999Z,12.80
2017-10-21T02:16:56.920Z,12.85
2017-10-21T02:17:56.861Z,12.87
2017-10-21T02:18:56.808Z,12.84
2017-10-21T02:19:56.783Z,12.84
2017-10-21T02:20:56.693Z,12.91
2017-10-21T02:21:56.631Z,12.80
2017-10-21T02:22:56.576Z,12.77
2017-10-21T02:23:56.518Z,12.80
2017-10-21T02:24:56.473Z,12.87
2017-10-21T02:25:56.405Z,12.88
2017-10-21T02:26:56.352Z,12.77
2017-10-21T02:27:56.295Z,12.88
2017-10-21T02:28:56.272Z,12.80
2017-10-21T02:29:56.191Z,12.76
2017-10-21T02:30:56.128Z,12.80
2017-10-21T02:31:56.078Z,12.81
2017-10-21T02:32:56.046Z,12.79
2017-10-21T02:33:55.962Z,12.80
2017-10-21T02:34:55.912Z,12.80
2017-10-21T02:35:55.851Z,12.88
2017-10-21T02:36:55.794Z,12.81
2017-10-21T02:37:55.738Z,12.85
2017-10-21T02:38:55.683Z,12.85
2017-10-21T02:39:55.627Z,12.89
2017-10-21T02:40:55.619Z,12.89
2017-10-21T02:41:55.517Z,12.76
2017-10-21T02:42:55.477Z,12.89
2017-10-21T02:43:55.408Z,12.87
2017-10-21T02:44:55.353Z,12.89
2017-10-21T02:45:55.342Z,12.81
2017-10-21T02:46:55.246Z,12.85
2017-10-21T02:47:55.189Z,12.85
2017-10-21T02:48:55.138Z,12.88
2017-10-21T02:49:55.105Z,12.81
2017-10-21T02:50:55.025Z,12.88
2017-10-21T02:51:54.973Z,12.85
2017-10-21T02:52:54.904Z,12.87
2017-10-21T02:53:54.844Z,12.80
2017-10-21T02:54:54.785Z,12.79
2017-10-21T02:55:54.728Z,12.76
2017-10-21T02:56:54.671Z,12.88
2017-10-21T02:57:54.644Z,12.74
2017-10-21T02:58:54.562Z,12.79
2017-10-21T02:59:54.506Z,12.81
2017-10-21T03:00:54.445Z,12.76
2017-10-21T03:01:54.388Z,12.76
2017-10-21T03:02:54.333Z,12.87
2017-10-21T03:03:54.280Z,12.77
2017-10-21T03:04:54.216Z,12.85
2017-10-21T03:05:54.160Z,12.77
2017-10-21T03:06:54.102Z,12.76
2017-10-21T03:07:54.047Z,12.77
2017-10-21T03:08:53.990Z,12.71
2017-10-21T03:09:53.959Z,12.76
2017-10-21T03:10:53.899Z,12.81
2017-10-21T03:11:53.837Z,12.67
2017-10-21T03:12:53.767Z,12.76
2017-10-21T03:13:53.715Z,12.69
2017-10-21T03:14:53.687Z,12.67
2017-10-21T03:15:53.606Z,12.69
2017-10-21T03:16:53.575Z,12.70
2017-10-21T03:17:53.489Z,12.63
2017-10-21T03:18:53.434Z,12.69
2017-10-21T03:19:53.394Z,12.63
2017-10-21T03:20:53.323Z,12.63
2017-10-21T03:21:53.268Z,12.56
2017-10-21T03:22:53.213Z,12.55
2017-10-21T03:23:53.158Z,12.58
2017-10-21T03:24:53.107Z,12.55
2017-10-21T03:25:53.051Z,12.56
2017-10-21T03:26:52.993Z,12.52
2017-10-21T03:27:52.939Z,12.43
2017-10-21T03:28:52.883Z,12.44
2017-10-21T03:29:52.829Z,12.43
2017-10-21T03:30:52.776Z,12.46
2017-10-21T03:31:52.719Z,12.36
2017-10-21T03:32:52.643Z,12.33
2017-10-21T03:33:52.612Z,12.38
2017-10-21T03:34:52.533Z,12.29
2017-10-21T03:35:52.477Z,12.36
2017-10-21T03:36:52.420Z,12.22
2017-10-21T03:37:52.364Z,12.33
2017-10-21T03:38:52.302Z,12.21
2017-10-21T03:39:52.257Z,12.26
2017-10-21T03:40:52.192Z,12.16
2017-10-21T03:41:52.139Z,12.22
2017-10-21T03:42:52.087Z,12.26
2017-10-21T03:43:52.018Z,12.22
2017-10-21T03:44:51.965Z,12.23
2017-10-21T03:45:51.904Z,12.23
2017-10-21T03:46:51.863Z,12.15
2017-10-21T03:47:51.792Z,12.16
2017-10-21T03:48:51.741Z,12.13
2017-10-21T03:49:51.680Z,12.12
2017-10-21T03:50:51.627Z,12.16
2017-10-21T03:51:51.570Z,12.16
2017-10-21T03:52:51.530Z,12.13
2017-10-21T03:53:51.459Z,12.22
2017-10-21T03:54:51.405Z,12.15
2017-10-21T03:55:51.353Z,12.21
2017-10-21T03:56:51.290Z,12.26
2017-10-21T03:57:51.235Z,12.21
2017-10-21T03:58:51.183Z,12.26
2017-10-21T03:59:51.126Z,12.19
2017-10-21T04:00:51.078Z,12.11
2017-10-21T04:01:51.019Z,12.21
2017-10-21T04:02:50.962Z,12.22
2017-10-21T04:03:50.906Z,12.12
2017-10-21T04:04:50.852Z,12.25
2017-10-21T04:05:50.779Z,12.22
2017-10-21T04:06:50.724Z,12.25
2017-10-21T04:07:50.687Z,12.25
2017-10-21T04:08:50.623Z,12.29
2017-10-21T04:09:50.553Z,12.25
2017-10-21T04:10:50.496Z,12.19
2017-10-21T04:11:50.437Z,12.23
2017-10-21T04:12:50.409Z,12.23
2017-10-21T04:13:50.326Z,12.16
2017-10-21T04:14:50.270Z,12.36
2017-10-21T04:15:50.212Z,12.26
2017-10-21T04:16:50.174Z,12.29
2017-10-21T04:17:50.111Z,12.21
2017-10-21T04:18:50.039Z,12.25
2017-10-21T04:19:49.998Z,12.29
2017-10-21T04:20:49.931Z,12.40
2017-10-21T04:21:49.871Z,12.30
2017-10-21T04:22:49.816Z,12.30
2017-10-21T04:23:49.764Z,12.22
2017-10-21T04:24:49.703Z,12.36
2017-10-21T04:25:49.659Z,12.26
2017-10-21T04:26:49.606Z,12.30
2017-10-21T04:27:49.533Z,12.18
2017-10-21T04:28:49.479Z,12.37
2017-10-21T04:29:49.453Z,12.37
2017-10-21T04:30:49.369Z,12.25
2017-10-21T04:31:49.315Z,12.25
2017-10-21T04:32:49.264Z,12.22
2017-10-21T04:33:49.203Z,12.34
2017-10-21T04:34:49.148Z,12.29
2017-10-21T04:35:49.081Z,12.34
2017-10-21T04:36:49.038Z,12.31
2017-10-21T04:37:48.985Z,12.23
2017-10-21T04:38:48.968Z,12.34
2017-10-21T04:39:48.943Z,12.23
2017-10-21T04:40:48.797Z,12.21
2017-10-21T04:41:48.743Z,12.33
2017-10-21T04:42:48.686Z,12.22
2017-10-21T04:43:48.654Z,12.26
2017-10-21T04:44:48.575Z,12.19
2017-10-21T04:45:48.516Z,12.31
2017-10-21T04:46:48.459Z,12.30
2017-10-21T04:47:48.408Z,12.34
2017-10-21T04:48:48.347Z,12.21
2017-10-21T04:49:48.287Z,12.33
2017-10-21T04:50:48.233Z,12.22
2017-10-21T04:51:48.171Z,12.23
2017-10-21T04:52:48.114Z,12.34
2017-10-21T04:53:48.064Z,12.22
2017-10-21T04:54:48.129Z,12.23
2017-10-21T04:55:47.967Z,12.26
2017-10-21T04:56:47.910Z,12.22
2017-10-21T04:57:47.870Z,12.26
2017-10-21T04:58:47.840Z,12.18
2017-10-21T04:59:47.759Z,12.25
2017-10-21T05:00:47.670Z,12.29
2017-10-21T05:01:47.613Z,12.25
2017-10-21T05:02:47.566Z,12.26
2017-10-21T05:03:47.501Z,12.15
2017-10-21T05:04:47.450Z,12.12
2017-10-21T05:05:47.406Z,12.18
2017-10-21T05:06:47.337Z,12.08
2017-10-21T05:07:47.279Z,12.03
2017-10-21T05:08:47.228Z,11.98
2017-10-21T05:09:47.170Z,11.98
2017-10-21T05:10:47.115Z,11.88
2017-10-21T05:11:47.060Z,11.84
2017-10-21T05:12:47.005Z,11.85
2017-10-21T05:13:46.965Z,11.78
2017-10-21T05:14:46.881Z,11.81
2017-10-21T05:15:46.819Z,11.82
2017-10-21T05:16:46.766Z,11.77
2017-10-21T05:17:46.739Z,11.79
2017-10-21T05:18:46.661Z,11.77
2017-10-21T05:19:46.599Z,11.74
2017-10-21T05:20:46.537Z,11.84
2017-10-21T05:21:46.479Z,11.72
2017-10-21T05:22:46.424Z,11.85
2017-10-21T05:23:46.361Z,11.84
2017-10-21T05:24:46.322Z,11.82
2017-10-21T05:25:46.253Z,11.72
2017-10-21T05:26:46.190Z,11.81
2017-10-21T05:27:46.138Z,11.78
2017-10-21T05:28:46.078Z,11.90
2017-10-21T05:29:46.022Z,11.85
2017-10-21T05:30:45.983Z,11.78
2017-10-21T05:31:45.917Z,11.81
2017-10-21T05:32:45.889Z,11.90
2017-10-21T05:33:45.799Z,11.93
2017-10-21T05:34:45.741Z,11.98
2017-10-21T05:35:45.686Z,11.98
2017-10-21T05:36:45.651Z,11.96
2017-10-21T05:37:45.575Z,11.98
2017-10-21T05:38:45.520Z,12.04
2017-10-21T05:39:45.467Z,12.01
2017-10-21T05:40:45.413Z,12.01
2017-10-21T05:41:45.356Z,12.07
2017-10-21T05:42:45.310Z,12.08
2017-10-21T05:43:45.246Z,12.13
2017-10-21T05:44:45.193Z,12.08
2017-10-21T05:45:45.138Z,12.11
2017-10-21T05:46:45.058Z,12.19
2017-10-21T05:47:45.027Z,12.13
2017-10-21T05:48:44.973Z,12.13
2017-10-21T05:49:44.919Z,12.12
2017-10-21T05:50:44.864Z,12.19
2017-10-21T05:51:44.778Z,12.12
2017-10-21T05:52:44.720Z,12.16
2017-10-21T05:53:44.667Z,12.13
2017-10-21T05:54:44.631Z,12.12
2017-10-21T05:55:44.544Z,12.15
2017-10-21T05:56:44.488Z,12.23
2017-10-21T05:57:44.432Z,12.22
2017-10-21T05:58:44.378Z,12.23
2017-10-21T05:59:44.319Z,12.19
2017-10-21T06:00:44.304Z,12.26
2017-10-21T06:01:44.209Z,12.30
2017-10-21T06:02:44.154Z,12.23
2017-10-21T06:03:44.111Z,12.18
2017-10-21T06:04:44.041Z,12.22
2017-10-21T06:05:43.999Z,12.26
2017-10-21T06:06:43.929Z,12.21
2017-10-21T06:07:43.871Z,12.37
2017-10-21T06:08:43.857Z,12.36
2017-10-21T06:09:43.762Z,12.31
2017-10-21T06:10:43.727Z,12.33
2017-10-21T06:11:43.651Z,12.29
2017-10-21T06:12:43.590Z,12.26
2017-10-21T06:13:43.542Z,12.36
2017-10-21T06:14:43.503Z,12.33
2017-10-21T06:15:43.433Z,12.37
2017-10-21T06:16:43.377Z,12.37
2017-10-21T06:17:43.334Z,12.36
2017-10-21T06:18:43.269Z,12.38
2017-10-21T06:19:43.226Z,12.38
2017-10-21T06:20:43.137Z,12.49
2017-10-21T06:21:43.082Z,12.48
2017-10-21T06:22:43.025Z,12.46
2017-10-21T06:23:42.968Z,12.52
2017-10-21T06:24:42.913Z,12.49
2017-10-21T06:25:42.855Z,12.51
2017-10-21T06:26:42.799Z,12.54
2017-10-21T06:27:42.771Z,12.56
2017-10-21T06:28:42.685Z,12.58
2017-10-21T06:29:42.629Z,12.58
2017-10-21T06:30:42.577Z,12.61
2017-10-21T06:31:42.511Z,12.61
2017-10-21T06:32:42.461Z,12.67
2017-10-21T06:33:42.398Z,12.61
2017-10-21T06:34:42.344Z,12.66
2017-10-21T06:35:42.287Z,12.59
2017-10-21T06:36:42.235Z,12.59
2017-10-21T06:37:42.208Z,12.70
2017-10-21T06:38:42.120Z,12.61
2017-10-21T06:39:42.093Z,12.67
2017-10-21T06:40:42.023Z,12.63
2017-10-21T06:41:41.955Z,12.58
2017-10-21T06:42:41.916Z,12.67
2017-10-21T06:43:41.861Z,12.66
2017-10-21T06:44:41.790Z,12.63
2017-10-21T06:45:41.732Z,12.73
2017-10-21T06:46:41.676Z,12.74
2017-10-21T06:47:41.623Z,12.79
2017-10-21T06:48:41.565Z,12.71
2017-10-21T06:49:41.511Z,12.70
2017-10-21T06:50:41.456Z,12.80
2017-10-21T06:51:41.403Z,12.71
2017-10-21T06:52:41.339Z,12.79
2017-10-21T06:53:41.302Z,12.85
2017-10-21T06:54:41.241Z,12.87
2017-10-21T06:55:41.182Z,12.88
2017-10-21T06:56:41.127Z,12.79
2017-10-21T06:57:41.062Z,12.80
2017-10-21T06:58:41.018Z,12.94
2017-10-21T06:59:40.963Z,12.85
2017-10-21T07:00:40.909Z,12.89
2017-10-21T07:01:40.855Z,12.89
2017-10-21T07:02:40.805Z,12.89
2017-10-21T07:03:40.725Z,12.91
2017-10-21T07:04:40.671Z,12.92
2017-10-21T07:05:40.635Z,12.99
2017-10-21T07:06:40.553Z,12.99
2017-10-21T07:07:40.495Z,12.89
2017-10-21T07:08:40.442Z,13.01
2017-10-21T07:09:40.388Z,12.88
2017-10-21T07:10:40.331Z,12.91
2017-10-21T07:11:40.282Z,12.95
2017-10-21T07:12:40.220Z,12.91
2017-10-21T07:13:40.164Z,12.95
2017-10-21T07:14:40.108Z,12.95
2017-10-21T07:15:40.052Z,12.96
2017-10-21T07:16:40.010Z,12.98
2017-10-21T07:17:39.945Z,13.04
2017-10-21T07:18:39.877Z,13.03
2017-10-21T07:19:39.820Z,12.98
2017-10-21T07:20:39.780Z,12.99
2017-10-21T07:21:39.744Z,12.92
2017-10-21T07:22:39.690Z,13.03
2017-10-21T07:23:39.598Z,12.96
2017-10-21T07:24:39.544Z,12.96
2017-10-21T07:25:39.489Z,12.99
2017-10-21T07:26:39.470Z,13.06
2017-10-21T07:27:39.384Z,13.10
2017-10-21T07:28:39.322Z,13.06
2017-10-21T07:29:39.267Z,13.14
2017-10-21T07:30:39.212Z,13.14
2017-10-21T07:31:39.157Z,13.19
2017-10-21T07:32:39.100Z,13.27
2017-10-21T07:33:39.045Z,13.16
2017-10-21T07:34:38.990Z,13.24
2017-10-21T07:35:38.933Z,13.28
2017-10-21T07:36:38.885Z,13.29
2017-10-21T07:37:38.824Z,13.25
2017-10-21T07:38:38.768Z,13.35
2017-10-21T07:39:38.715Z,13.25
2017-10-21T07:40:38.659Z,13.35
2017-10-21T07:41:38.604Z,13.44
2017-10-21T07:42:38.543Z,13.38
2017-10-21T07:43:38.497Z,13.51
2017-10-21T07:44:38.440Z,13.36
2017-10-21T07:45:38.385Z,13.61
2017-10-21T07:46:38.330Z,13.47
2017-10-21T07:47:38.276Z,13.55
2017-10-21T07:48:38.220Z,13.61
2017-10-21T07:49:38.166Z,13.66
2017-10-21T07:50:38.111Z,13.68
2017-10-21T07:51:38.057Z,13.71
2017-10-21T07:52:38.001Z,13.80
2017-10-21T07:53:37.947Z,13.84
2017-10-21T07:54:37.899Z,13.83
2017-10-21T07:55:37.839Z,13.90
2017-10-21T07:56:37.783Z,13.93
2017-10-21T07:57:37.728Z,14.05
2017-10-21T07:58:37.674Z,14.11
2017-10-21T07:59:37.620Z,14.11
2017-10-21T08:00:37.546Z,14.17
2017-10-21T08:01:37.490Z,14.13
2017-10-21T08:02:37.437Z,14.20
2017-10-21T08:03:37.381Z,14.26
2017-10-21T08:04:37.326Z,14.19
2017-10-21T08:05:37.272Z,14.24
2017-10-21T08:06:37.215Z,14.35
2017-10-21T08:07:37.160Z,14.30
2017-10-21T08:08:37.107Z,14.30
2017-10-21T08:09:37.051Z,14.30
2017-10-21T08:10:36.994Z,14.31
2017-10-21T08:11:36.940Z,14.29
2017-10-21T08:12:36.889Z,14.35
2017-10-21T08:13:36.831Z,14.34
2017-10-21T08:14:36.778Z,14.35
2017-10-21T08:15:36.721Z,14.23
2017-10-21T08:16:36.682Z,14.24
2017-10-21T08:17:36.614Z,14.26
2017-10-21T08:18:36.558Z,14.23
2017-10-21T08:19:36.504Z,14.23
2017-10-21T08:20:36.444Z,14.31
2017-10-21T08:21:36.395Z,14.31
2017-10-21T08:22:36.340Z,14.45
2017-10-21T08:23:36.280Z,14.44
2017-10-21T08:24:36.230Z,14.46
2017-10-21T08:25:36.176Z,14.30
2017-10-21T08:26:36.122Z,14.35
2017-10-21T08:27:36.067Z,14.31
2017-10-21T08:28:36.012Z,14.38
2017-10-21T08:29:35.959Z,14.42
2017-10-21T08:30:35.903Z,14.41
2017-10-21T08:31:35.851Z,14.34
2017-10-21T08:32:35.794Z,14.42
2017-10-21T08:33:35.740Z,14.31
2017-10-21T08:34:35.685Z,14.38
2017-10-21T08:35:35.631Z,14.41
2017-10-21T08:36:35.576Z,14.44
2017-10-21T08:37:35.522Z,14.35
2017-10-21T08:38:35.466Z,14.35
2017-10-21T08:39:35.416Z,14.45
2017-10-21T08:40:35.357Z,14.42
2017-10-21T08:41:35.303Z,14.39
2017-10-21T08:42:35.249Z,14.41
2017-10-21T08:43:35.195Z,14.31
2017-10-21T08:44:35.142Z,14.34
2017-10-21T08:45:35.086Z,14.35
2017-10-21T08:46:35.032Z,14.34
2017-10-21T08:47:34.976Z,14.41
2017-10-21T08:48:34.924Z,14.39
2017-10-21T08:49:34.869Z,14.38
2017-10-21T08:50:34.834Z,14.36
2017-10-21T08:51:34.784Z,14.38
2017-10-21T08:52:34.705Z,14.39
2017-10-21T08:53:34.650Z,14.34
2017-10-21T08:54:34.614Z,14.35
2017-10-21T08:55:34.541Z,14.36
2017-10-21T08:56:34.491Z,14.29
2017-10-21T08:57:34.455Z,14.31
2017-10-21T08:58:34.419Z,14.35
2017-10-21T08:59:34.322Z,14.30
2017-10-21T09:00:34.286Z,14.24
2017-10-21T09:01:34.235Z,14.19
2017-10-21T09:02:34.190Z,14.30
2017-10-21T09:03:34.102Z,14.27
2017-10-21T09:04:34.080Z,14.27
2017-10-21T09:05:34.013Z,14.20
2017-10-21T09:06:33.959Z,14.19
2017-10-21T09:07:33.884Z,14.20
2017-10-21T09:08:33.829Z,14.12
2017-10-21T09:09:33.794Z,14.17
2017-10-21T09:10:33.720Z,14.13
2017-10-21T09:11:33.664Z,14.16
2017-10-21T09:12:33.609Z,14.12
2017-10-21T09:13:33.563Z,14.20
2017-10-21T09:14:33.501Z,14.20
2017-10-21T09:15:33.447Z,14.11
2017-10-21T09:16:33.392Z,14.16
2017-10-21T09:17:33.337Z,14.16
2017-10-21T09:18:33.282Z,14.16
2017-10-21T09:19:33.227Z,14.20
2017-10-21T09:20:33.172Z,14.13
2017-10-21T09:21:33.117Z,14.16
2017-10-21T09:22:33.063Z,14.16
2017-10-21T09:23:33.008Z,14.21
2017-10-21T09:24:32.954Z,14.09
2017-10-21T09:25:32.897Z,14.19
2017-10-21T09:26:32.843Z,14.17
2017-10-21T09:27:32.788Z,14.21
2017-10-21T09:28:32.732Z,14.12
2017-10-21T09:29:32.679Z,14.16
2017-10-21T09:30:32.628Z,14.21
2017-10-21T09:31:32.566Z,14.20
2017-10-21T09:32:32.514Z,14.24
2017-10-21T09:33:32.457Z,14.11
2017-10-21T09:34:32.405Z,14.16
2017-10-21T09:35:32.353Z,14.16
2017-10-21T09:36:32.293Z,14.16
2017-10-21T09:37:32.241Z,14.08
2017-10-21T09:38:32.183Z,14.17
2017-10-21T09:39:32.131Z,14.09
2017-10-21T09:40:32.071Z,14.05
2017-10-21T09:41:32.019Z,14.12
2017-10-21T09:42:31.962Z,14.16
2017-10-21T09:43:31.908Z,14.26
2017-10-21T09:44:31.852Z,14.21
2017-10-21T09:45:31.797Z,14.21
2017-10-21T09:46:31.742Z,14.24
2017-10-21T09:47:31.685Z,14.31
2017-10-21T09:48:31.632Z,14.30
2017-10-21T09:49:31.578Z,14.31
2017-10-21T09:50:31.523Z,14.34
2017-10-21T09:51:31.472Z,14.41
2017-10-21T09:52:31.413Z,14.42
2017-10-21T09:53:31.357Z,14.38
2017-10-21T09:54:31.301Z,14.44
2017-10-21T09:55:31.248Z,14.44
2017-10-21T09:56:31.193Z,14.34
2017-10-21T09:57:31.148Z,14.38
2017-10-21T09:58:31.088Z,14.41
2017-10-21T09:59:31.028Z,14.42
2017-10-21T10:00:30.976Z,14.36
2017-10-21T10:01:30.916Z,14.36
2017-10-21T10:02:30.869Z,14.35
2017-10-21T10:03:30.809Z,14.38
2017-10-21T10:04:30.754Z,14.42
2017-10-21T10:05:30.701Z,14.42
2017-10-21T10:06:30.645Z,14.36
2017-10-21T10:07:30.590Z,14.34
2017-10-21T10:08:30.535Z,14.41
2017-10-21T10:09:30.481Z,14.31
2017-10-21T10:10:30.430Z,14.44
2017-10-21T10:11:30.376Z,14.30
2017-10-21T10:12:30.317Z,14.34
2017-10-21T10:13:30.261Z,14.42
2017-10-21T10:14:30.206Z,14.39
2017-10-21T10:15:30.154Z,14.38
2017-10-21T10:16:30.093Z,14.44
2017-10-21T10:17:30.035Z,14.34
2017-10-21T10:18:29.988Z,14.42
2017-10-21T10:19:29.931Z,14.46
2017-10-21T10:20:29.872Z,14.44
2017-10-21T10:21:29.817Z,14.41
2017-10-21T10:22:29.763Z,14.41
2017-10-21T10:23:29.706Z,14.53
2017-10-21T10:24:29.650Z,14.49
2017-10-21T10:25:29.598Z,14.56
2017-10-21T10:26:29.542Z,14.53
2017-10-21T10:27:29.490Z,14.52
2017-10-21T10:28:29.434Z,14.49
2017-10-21T10:29:29.388Z,14.57
2017-10-21T10:30:29.328Z,14.56
2017-10-21T10:31:29.268Z,14.64
2017-10-21T10:32:29.216Z,14.61
2017-10-21T10:33:29.164Z,14.67
2017-10-21T10:34:29.104Z,14.67
2017-10-21T10:35:29.050Z,14.66
2017-10-21T10:36:28.997Z,14.78
2017-10-21T10:37:28.941Z,14.78
2017-10-21T10:38:28.887Z,14.82
2017-10-21T10:39:28.830Z,14.75
2017-10-21T10:40:28.780Z,14.79
2017-10-21T10:41:28.720Z,14.79
2017-10-21T10:42:28.673Z,14.82
2017-10-21T10:43:28.612Z,14.79
2017-10-21T10:44:28.566Z,14.79
2017-10-21T10:45:28.503Z,14.86
2017-10-21T10:46:28.449Z,14.75
2017-10-21T10:47:28.398Z,14.79
2017-10-21T10:48:28.340Z,14.78
2017-10-21T10:49:28.292Z,14.79
2017-10-21T10:50:28.232Z,14.74
2017-10-21T10:51:28.179Z,14.75
2017-10-21T10:52:28.126Z,14.78
2017-10-21T10:53:28.067Z,14.82
2017-10-21T10:54:28.018Z,14.79
2017-10-21T10:55:27.959Z,14.75
2017-10-21T10:56:27.905Z,14.86
2017-10-21T10:57:27.857Z,14.86
2017-10-21T10:58:27.796Z,14.90
2017-10-21T10:59:27.742Z,14.87
2017-10-21T11:00:27.689Z,14.90
2017-10-21T11:01:27.631Z,14.83
2017-10-21T11:02:27.583Z,14.93
2017-10-21T11:03:27.521Z,14.82
2017-10-21T11:04:27.475Z,14.93
2017-10-21T11:05:27.414Z,14.85
2017-10-21T11:06:27.365Z,14.95
2017-10-21T11:07:27.310Z,14.97
2017-10-21T11:08:27.248Z,14.82
2017-10-21T11:09:27.197Z,14.97
2017-10-21T11:10:27.142Z,14.93
2017-10-21T11:11:27.107Z,14.98
2017-10-21T11:12:27.040Z,14.98
2017-10-21T11:13:26.985Z,14.98
2017-10-21T11:14:26.933Z,15.01
2017-10-21T11:15:26.870Z,15.04
2017-10-21T11:16:26.836Z,14.98
2017-10-21T11:17:26.767Z,15.09
2017-10-21T11:18:26.715Z,15.04
2017-10-21T11:19:26.656Z,15.04
2017-10-21T11:20:26.603Z,15.04
2017-10-21T11:21:26.549Z,14.93
2017-10-21T11:22:26.496Z,14.98
2017-10-21T11:23:26.445Z,14.97
2017-10-21T11:24:26.389Z,15.01
2017-10-21T11:25:26.331Z,14.95
2017-10-21T11:26:26.284Z,15.00
2017-10-21T11:27:26.220Z,15.01
2017-10-21T11:28:26.170Z,14.98
2017-10-21T11:29:26.113Z,14.95
2017-10-21T11:30:26.059Z,15.03
2017-10-21T11:31:26.005Z,14.98
2017-10-21T11:32:25.951Z,14.95
2017-10-21T11:33:25.897Z,15.00
2017-10-21T11:34:25.843Z,14.97
2017-10-21T11:35:25.789Z,14.97
2017-10-21T11:36:25.737Z,15.01
2017-10-21T11:37:25.677Z,14.97
2017-10-21T11:38:25.629Z,14.98
2017-10-21T11:39:25.569Z,15.03
2017-10-21T11:40:25.515Z,15.03
2017-10-21T11:41:25.460Z,15.01
2017-10-21T11:42:25.410Z,15.01
2017-10-21T11:43:25.354Z,15.05
2017-10-21T11:44:25.301Z,15.13
2017-10-21T11:45:25.243Z,15.12
2017-10-21T11:46:25.191Z,15.20
2017-10-21T11:47:25.137Z,15.18
2017-10-21T11:48:25.080Z,15.22
2017-10-21T11:49:25.027Z,15.20
2017-10-21T11:50:24.974Z,15.20
2017-10-21T11:51:24.917Z,15.30
2017-10-21T11:52:24.867Z,15.28
2017-10-21T11:53:24.807Z,15.35
2017-10-21T11:54:24.755Z,15.41
2017-10-21T11:55:24.930Z,15.41
2017-10-21T11:56:24.808Z,15.41
2017-10-21T11:57:24.593Z,15.46
2017-10-21T11:58:24.540Z,15.37
2017-10-21T11:59:24.485Z,15.51
2017-10-21T12:00:24.430Z,15.46
2017-10-21T12:01:24.377Z,15.52
2017-10-21T12:02:24.321Z,15.41
2017-10-21T12:03:24.267Z,15.51
2017-10-21T12:04:24.213Z,15.49
2017-10-21T12:05:24.159Z,15.46
2017-10-21T12:06:24.111Z,15.49
2017-10-21T12:07:24.047Z,15.52
2017-10-21T12:08:23.996Z,15.51
2017-10-21T12:09:23.942Z,15.60
2017-10-21T12:10:23.908Z,15.55
2017-10-21T12:11:23.835Z,15.58
2017-10-21T12:12:23.800Z,15.51
2017-10-21T12:13:23.726Z,15.46
2017-10-21T12:14:23.690Z,15.41
2017-10-21T12:15:23.635Z,15.60
2017-10-21T12:16:23.581Z,15.46
2017-10-21T12:17:23.526Z,15.60
2017-10-21T12:18:23.454Z,15.38
2017-10-21T12:19:23.416Z,15.48
2017-10-21T12:20:23.362Z,15.48
2017-10-21T12:21:23.308Z,15.35
2017-10-21T12:22:23.253Z,15.20
2017-10-21T12:23:23.181Z,15.19
2017-10-21T12:24:23.143Z,15.27
2017-10-21T12:25:23.089Z,15.20
2017-10-21T12:26:23.034Z,15.22
2017-10-21T12:27:22.980Z,15.30
2017-10-21T12:28:22.910Z,15.19
2017-10-21T12:29:22.871Z,15.18
2017-10-21T12:30:22.816Z,15.28
2017-10-21T12:31:22.762Z,15.22
2017-10-21T12:32:22.707Z,15.18
2017-10-21T12:33:22.637Z,15.18
2017-10-21T12:34:22.598Z,15.28
2017-10-21T12:35:22.543Z,15.18
2017-10-21T12:36:22.489Z,15.20
2017-10-21T12:37:22.434Z,15.23
2017-10-21T12:38:22.365Z,15.31
2017-10-21T12:39:22.324Z,15.27
2017-10-21T12:40:22.270Z,15.31
2017-10-21T12:41:22.216Z,15.30
2017-10-21T12:42:22.176Z,15.28
2017-10-21T12:43:22.089Z,15.20
2017-10-21T12:44:22.055Z,15.11
2017-10-21T12:45:21.997Z,15.11
2017-10-21T12:46:21.943Z,15.12
2017-10-21T12:47:21.889Z,15.11
2017-10-21T12:48:21.815Z,15.18
2017-10-21T12:49:21.779Z,15.16
2017-10-21T12:50:21.726Z,15.13
2017-10-21T12:51:21.649Z,15.13